createdAt,value
2023-05-07T00:00:20.397Z,100.00
2023-05-07T00:02:50.619Z,100.00
2023-05-07T00:05:20.673Z,100.00
2023-05-07T00:07:53.800Z,100.00
2023-05-07T00:10:23.774Z,100.00
2023-05-07T00:12:53.895Z,100.00
2023-05-07T00:15:24.106Z,100.00
2023-05-07T00:17:54.148Z,100.00
2023-05-07T00:20:24.061Z,100.00
2023-05-07T00:22:56.538Z,100.00
2023-05-07T00:25:26.546Z,100.00
2023-05-07T00:27:56.432Z,100.00
2023-05-07T00:30:26.427Z,100.00
2023-05-07T00:32:56.364Z,100.00
2023-05-07T00:35:26.719Z,100.00
2023-05-07T00:37:59.231Z,100.00
2023-05-07T00:40:29.106Z,100.00
2023-05-07T00:43:01.130Z,100.00
2023-05-07T00:45:31.798Z,100.00
2023-05-07T00:48:04.623Z,100.00
2023-05-07T00:50:36.529Z,100.00
2023-05-07T00:53:10.182Z,100.00
2023-05-07T00:55:40.555Z,100.00
2023-05-07T00:58:10.681Z,100.00
2023-05-07T01:00:40.588Z,100.00
2023-05-07T01:03:10.666Z,100.00
2023-05-07T01:05:42.012Z,100.00
2023-05-07T01:08:14.884Z,100.00
2023-05-07T01:10:45.762Z,100.00
2023-05-07T01:13:17.306Z,100.00
2023-05-07T01:15:47.596Z,100.00
2023-05-07T01:18:17.902Z,100.00
2023-05-07T01:20:48.463Z,100.00
2023-05-07T01:23:21.868Z,100.00
2023-05-07T01:25:55.791Z,100.00
2023-05-07T01:28:28.173Z,100.00
2023-05-07T01:31:05.553Z,100.00
2023-05-07T01:33:39.016Z,100.00
2023-05-07T01:36:11.388Z,100.00
2023-05-07T01:38:45.647Z,100.00
2023-05-07T01:41:16.275Z,100.00
2023-05-07T01:43:46.755Z,100.00
2023-05-07T01:46:16.877Z,100.00
2023-05-07T01:48:47.791Z,100.00
2023-05-07T01:51:17.764Z,100.00
2023-05-07T01:53:51.970Z,100.00
2023-05-07T01:56:23.082Z,100.00
2023-05-07T01:58:54.968Z,100.00
2023-05-07T02:01:24.945Z,100.00
2023-05-07T02:03:55.684Z,100.00
2023-05-07T02:06:28.968Z,100.00
2023-05-07T02:09:06.725Z,100.00
2023-05-07T02:11:37.217Z,100.00
2023-05-07T02:14:07.149Z,100.00
2023-05-07T02:16:37.389Z,100.00
2023-05-07T02:19:07.439Z,100.00
2023-05-07T02:21:37.529Z,100.00
2023-05-07T02:24:10.315Z,100.00
2023-05-07T02:26:40.315Z,100.00
2023-05-07T02:29:10.225Z,100.00
2023-05-07T02:31:41.476Z,100.00
2023-05-07T02:34:11.872Z,100.00
2023-05-07T02:36:41.764Z,100.00
2023-05-07T02:39:18.170Z,100.00
2023-05-07T02:41:48.072Z,100.00
2023-05-07T02:44:18.294Z,100.00
2023-05-07T02:46:51.769Z,100.00
2023-05-07T02:49:22.126Z,100.00
2023-05-07T02:51:52.184Z,100.00
2023-05-07T02:54:28.646Z,100.00
2023-05-07T02:56:58.765Z,100.00
2023-05-07T02:59:28.838Z,100.00
2023-05-07T03:01:59.731Z,100.00
2023-05-07T03:04:29.712Z,100.00
2023-05-07T03:06:59.612Z,100.00
2023-05-07T03:09:32.368Z,100.00
2023-05-07T03:12:02.885Z,100.00
2023-05-07T03:14:33.010Z,100.00
2023-05-07T03:17:03.038Z,100.00
2023-05-07T03:19:33.330Z,100.00
2023-05-07T03:22:03.374Z,100.00
2023-05-07T03:24:35.816Z,100.00
2023-05-07T03:27:05.683Z,100.00
2023-05-07T03:29:36.226Z,100.00
2023-05-07T03:32:07.089Z,100.00
2023-05-07T03:34:37.269Z,100.00
2023-05-07T03:37:07.510Z,100.00
2023-05-07T03:39:40.133Z,100.00
2023-05-07T03:42:10.171Z,100.00
2023-05-07T03:44:40.626Z,100.00
2023-05-07T03:47:11.371Z,100.00
2023-05-07T03:49:42.201Z,100.00
2023-05-07T03:52:12.385Z,100.00
2023-05-07T03:54:45.074Z,100.00
2023-05-07T03:57:17.742Z,100.00
2023-05-07T03:59:47.817Z,100.00
2023-05-07T04:02:17.808Z,100.00
2023-05-07T04:04:47.842Z,100.00
2023-05-07T04:07:18.440Z,100.00
2023-05-07T04:09:55.223Z,100.00
2023-05-07T04:12:25.240Z,100.00
2023-05-07T04:14:55.330Z,100.00
2023-05-07T04:17:27.535Z,100.00
2023-05-07T04:19:57.534Z,100.00
2023-05-07T04:22:28.959Z,100.00
2023-05-07T04:25:01.527Z,100.00
2023-05-07T04:27:32.028Z,100.00
2023-05-07T04:30:02.081Z,100.00
2023-05-07T04:32:35.100Z,100.00
2023-05-07T04:35:05.061Z,100.00
2023-05-07T04:37:36.264Z,100.00
2023-05-07T04:40:11.510Z,100.00
2023-05-07T04:42:41.725Z,100.00
2023-05-07T04:45:13.533Z,100.00
2023-05-07T04:47:45.806Z,100.00
2023-05-07T04:50:16.549Z,100.00
2023-05-07T04:52:48.160Z,100.00
2023-05-07T04:55:21.004Z,100.00
2023-05-07T04:57:51.057Z,100.00
2023-05-07T05:00:21.630Z,100.00
2023-05-07T05:02:53.864Z,100.00
2023-05-07T05:05:25.739Z,100.00
2023-05-07T05:07:57.789Z,100.00
2023-05-07T05:10:31.784Z,100.00
2023-05-07T05:13:02.083Z,100.00
2023-05-07T05:15:33.872Z,100.00
2023-05-07T05:18:05.036Z,100.00
2023-05-07T05:20:35.466Z,100.00
2023-05-07T05:23:05.434Z,100.00
2023-05-07T05:25:38.488Z,100.00
2023-05-07T05:28:08.607Z,100.00
2023-05-07T05:30:38.478Z,100.00
2023-05-07T05:33:08.367Z,100.00
2023-05-07T05:35:38.835Z,100.00
2023-05-07T05:38:13.693Z,100.00
2023-05-07T05:40:47.339Z,100.00
2023-05-07T05:43:17.653Z,95.07
2023-05-07T05:45:47.640Z,84.60
2023-05-07T05:48:17.612Z,76.00
2023-05-07T05:50:47.715Z,68.33
2023-05-07T05:53:19.473Z,62.22
2023-05-07T05:55:52.615Z,58.20
2023-05-07T05:58:22.627Z,57.03
2023-05-07T06:00:59.356Z,54.99
2023-05-07T06:03:30.797Z,55.38
2023-05-07T06:06:04.058Z,53.29
2023-05-07T06:08:34.667Z,52.29
2023-05-07T06:11:07.976Z,51.19
2023-05-07T06:13:40.908Z,49.87
2023-05-07T06:16:11.142Z,48.63
2023-05-07T06:18:41.250Z,47.92
2023-05-07T06:21:11.199Z,47.67
2023-05-07T06:23:42.031Z,47.73
2023-05-07T06:26:14.935Z,47.24
2023-05-07T06:28:47.868Z,48.38
2023-05-07T06:31:21.661Z,48.81
2023-05-07T06:34:03.447Z,46.83
2023-05-07T06:36:40.327Z,49.44
2023-05-07T06:39:21.621Z,46.88
2023-05-07T06:41:54.108Z,45.40
2023-05-07T06:44:34.996Z,45.55
2023-05-07T06:47:17.128Z,46.76
2023-05-07T06:49:49.920Z,46.92
2023-05-07T06:52:21.637Z,48.48
2023-05-07T06:54:53.814Z,49.24
2023-05-07T06:57:28.767Z,49.76
2023-05-07T06:59:58.802Z,51.93
2023-05-07T07:02:29.626Z,53.47
2023-05-07T07:04:59.604Z,51.55
2023-05-07T07:07:29.834Z,49.19
2023-05-07T07:10:00.172Z,47.87
2023-05-07T07:12:34.012Z,46.71
2023-05-07T07:15:03.914Z,45.45
2023-05-07T07:17:33.856Z,44.14
2023-05-07T07:20:04.211Z,42.00
2023-05-07T07:22:34.474Z,40.30
2023-05-07T07:25:04.634Z,38.04
2023-05-07T07:27:37.134Z,38.15
2023-05-07T07:30:08.492Z,36.94
2023-05-07T07:32:41.458Z,36.70
2023-05-07T07:35:12.600Z,34.84
2023-05-07T07:37:43.066Z,34.30
2023-05-07T07:40:15.942Z,34.09
2023-05-07T07:42:49.408Z,33.79
2023-05-07T07:45:19.289Z,33.39
2023-05-07T07:47:51.478Z,32.67
2023-05-07T07:50:35.623Z,32.04
2023-05-07T07:53:11.108Z,33.42
2023-05-07T07:55:42.460Z,32.19
2023-05-07T07:58:17.371Z,31.88
2023-05-07T08:00:48.381Z,32.60
2023-05-07T08:03:19.118Z,32.84
2023-05-07T08:05:53.740Z,33.01
2023-05-07T08:08:23.661Z,32.77
2023-05-07T08:10:54.468Z,31.53
2023-05-07T08:13:34.201Z,32.65
2023-05-07T08:16:04.238Z,32.08
2023-05-07T08:18:34.239Z,31.00
2023-05-07T08:21:06.462Z,29.54
2023-05-07T08:23:36.377Z,28.65
2023-05-07T08:26:07.587Z,28.83
2023-05-07T08:28:40.743Z,27.88
2023-05-07T08:31:11.625Z,29.34
2023-05-07T08:33:44.132Z,31.81
2023-05-07T08:36:14.248Z,33.46
2023-05-07T08:38:46.825Z,34.56
2023-05-07T08:41:17.350Z,33.54
2023-05-07T08:43:53.791Z,31.89
2023-05-07T08:46:25.489Z,29.96
2023-05-07T08:48:58.841Z,28.88
2023-05-07T08:51:28.888Z,28.48
2023-05-07T08:53:58.873Z,27.61
2023-05-07T08:56:33.659Z,28.08
2023-05-07T08:59:06.258Z,29.48
2023-05-07T09:01:37.136Z,30.14
2023-05-07T09:04:08.275Z,30.12
2023-05-07T09:06:39.214Z,29.35
2023-05-07T09:09:09.313Z,28.94
2023-05-07T09:11:39.522Z,28.07
2023-05-07T09:14:12.017Z,27.38
2023-05-07T09:16:45.618Z,27.90
2023-05-07T09:19:15.714Z,27.33
2023-05-07T09:21:49.043Z,28.27
2023-05-07T09:24:19.793Z,28.33
2023-05-07T09:26:50.086Z,27.74
2023-05-07T09:29:23.089Z,29.16
2023-05-07T09:31:52.982Z,28.46
2023-05-07T09:34:23.381Z,28.14
2023-05-07T09:36:53.680Z,27.87
2023-05-07T09:39:23.698Z,28.08
2023-05-07T09:41:55.676Z,28.59
2023-05-07T09:44:38.473Z,28.92
2023-05-07T09:47:12.086Z,29.24
2023-05-07T09:49:51.684Z,29.04
2023-05-07T09:52:24.928Z,29.58
2023-05-07T09:55:01.615Z,29.41
2023-05-07T09:57:34.429Z,30.21
2023-05-07T10:00:14.582Z,30.00
2023-05-07T10:03:01.548Z,30.00
2023-05-07T10:05:41.593Z,28.79
2023-05-07T10:08:13.314Z,28.34
2023-05-07T10:10:44.915Z,26.80
2023-05-07T10:13:20.727Z,27.54
2023-05-07T10:15:56.687Z,28.09
2023-05-07T10:18:33.772Z,28.02
2023-05-07T10:21:15.022Z,28.24
2023-05-07T10:23:48.963Z,27.41
2023-05-07T10:26:21.467Z,27.35
2023-05-07T10:28:58.807Z,26.76
2023-05-07T10:31:59.130Z,25.63
2023-05-07T10:34:36.715Z,25.18
2023-05-07T10:37:07.630Z,26.48
2023-05-07T10:39:38.686Z,27.98
2023-05-07T10:42:12.829Z,29.48
2023-05-07T10:44:46.684Z,28.30
2023-05-07T10:47:27.169Z,26.71
2023-05-07T10:50:26.228Z,25.68
2023-05-07T10:53:30.448Z,25.84
2023-05-07T10:56:32.544Z,24.90
2023-05-07T10:59:47.618Z,24.40
2023-05-07T11:02:23.674Z,24.97
2023-05-07T11:05:27.862Z,24.67
2023-05-07T11:08:10.230Z,24.71
2023-05-07T11:10:58.265Z,25.80
2023-05-07T11:13:48.126Z,26.69
2023-05-07T11:16:32.631Z,26.47
2023-05-07T11:19:10.734Z,27.30
2023-05-07T11:21:49.479Z,26.17
2023-05-07T11:24:44.103Z,24.56
2023-05-07T11:27:16.825Z,25.46
2023-05-07T11:29:50.973Z,26.35
2023-05-07T11:32:26.668Z,26.53
2023-05-07T11:34:58.674Z,25.77
2023-05-07T11:37:32.716Z,25.15
2023-05-07T11:40:07.932Z,25.95
2023-05-07T11:42:39.357Z,25.28
2023-05-07T11:45:11.566Z,24.18
2023-05-07T11:47:41.842Z,24.16
2023-05-07T11:50:14.246Z,24.84
2023-05-07T11:52:54.538Z,26.31
2023-05-07T11:55:25.348Z,25.79
2023-05-07T11:57:55.252Z,26.56
2023-05-07T12:00:25.124Z,27.04
2023-05-07T12:02:55.221Z,27.47
2023-05-07T12:05:25.198Z,28.70
2023-05-07T12:08:02.277Z,30.11
2023-05-07T12:10:32.257Z,30.61
2023-05-07T12:13:02.214Z,30.65
2023-05-07T12:15:32.084Z,30.12
2023-05-07T12:18:02.077Z,31.39
2023-05-07T12:20:32.290Z,32.96
2023-05-07T12:23:05.321Z,33.58
2023-05-07T12:25:35.320Z,34.22
2023-05-07T12:28:06.219Z,37.26
2023-05-07T12:30:36.604Z,36.64
2023-05-07T12:33:06.674Z,37.06
2023-05-07T12:35:40.857Z,38.59
2023-05-07T12:38:16.327Z,41.52
2023-05-07T12:40:48.702Z,44.33
2023-05-07T12:43:20.597Z,47.17
2023-05-07T12:45:52.970Z,50.55
2023-05-07T12:48:24.055Z,52.98
2023-05-07T12:50:54.300Z,54.50
2023-05-07T12:53:28.600Z,56.01
2023-05-07T12:56:00.718Z,55.59
2023-05-07T12:58:33.469Z,55.17
2023-05-07T13:01:07.675Z,57.33
2023-05-07T13:03:39.327Z,77.86
2023-05-07T13:06:13.310Z,100.00
2023-05-07T13:08:46.475Z,100.00
2023-05-07T13:11:17.172Z,100.00
2023-05-07T13:13:47.068Z,100.00
2023-05-07T13:16:16.979Z,100.00
2023-05-07T13:18:47.500Z,100.00
2023-05-07T13:21:17.421Z,100.00
2023-05-07T13:23:49.899Z,100.00
2023-05-07T13:26:26.611Z,100.00
2023-05-07T13:28:57.271Z,100.00
2023-05-07T13:31:27.876Z,100.00
2023-05-07T13:33:57.803Z,100.00
2023-05-07T13:36:27.921Z,100.00
2023-05-07T13:39:01.635Z,100.00
2023-05-07T13:41:31.541Z,100.00
2023-05-07T13:44:01.434Z,100.00
2023-05-07T13:46:31.603Z,100.00
2023-05-07T13:49:01.854Z,100.00
2023-05-07T13:51:31.790Z,100.00
2023-05-07T13:54:04.315Z,100.00
2023-05-07T13:56:34.640Z,100.00
2023-05-07T13:59:05.056Z,100.00
2023-05-07T14:01:35.230Z,100.00
2023-05-07T14:04:05.096Z,100.00
2023-05-07T14:06:35.000Z,100.00
2023-05-07T14:09:07.575Z,100.00
2023-05-07T14:11:37.527Z,100.00
2023-05-07T14:14:07.431Z,100.00
2023-05-07T14:16:37.454Z,100.00
2023-05-07T14:19:07.477Z,100.00
2023-05-07T14:21:37.349Z,100.00
2023-05-07T14:24:11.023Z,100.00
2023-05-07T14:26:41.006Z,100.00
2023-05-07T14:29:10.904Z,100.00
2023-05-07T14:31:40.912Z,100.00
2023-05-07T14:34:10.853Z,100.00
2023-05-07T14:36:41.392Z,100.00
2023-05-07T14:39:14.936Z,100.00
2023-05-07T14:41:44.930Z,100.00
2023-05-07T14:44:14.861Z,100.00
2023-05-07T14:46:44.855Z,100.00
2023-05-07T14:49:18.184Z,100.00
2023-05-07T14:51:48.695Z,100.00
2023-05-07T14:54:21.197Z,100.00
2023-05-07T14:56:51.459Z,100.00
2023-05-07T14:59:22.356Z,100.00
2023-05-07T15:01:52.348Z,100.00
2023-05-07T15:04:22.438Z,100.00
2023-05-07T15:06:53.353Z,100.00
2023-05-07T15:09:25.910Z,100.00
2023-05-07T15:11:56.363Z,100.00
2023-05-07T15:14:26.248Z,100.00
2023-05-07T15:16:56.317Z,100.00
2023-05-07T15:19:30.060Z,100.00
2023-05-07T15:22:03.383Z,100.00
2023-05-07T15:24:36.424Z,100.00
2023-05-07T15:27:06.745Z,100.00
2023-05-07T15:29:36.660Z,100.00
2023-05-07T15:32:07.372Z,100.00
2023-05-07T15:34:37.282Z,100.00
2023-05-07T15:37:07.151Z,100.00
2023-05-07T15:39:40.189Z,100.00
2023-05-07T15:42:10.066Z,100.00
2023-05-07T15:44:40.660Z,100.00
2023-05-07T15:47:10.585Z,100.00
2023-05-07T15:49:40.453Z,100.00
2023-05-07T15:52:11.287Z,100.00
2023-05-07T15:54:43.864Z,100.00
2023-05-07T15:57:14.088Z,100.00
2023-05-07T15:59:43.967Z,100.00
2023-05-07T16:02:13.917Z,100.00
2023-05-07T16:04:47.720Z,100.00
2023-05-07T16:07:17.780Z,100.00
2023-05-07T16:09:50.221Z,100.00
2023-05-07T16:12:20.439Z,100.00
2023-05-07T16:14:51.968Z,100.00
2023-05-07T16:17:22.040Z,100.00
2023-05-07T16:19:53.798Z,100.00
2023-05-07T16:22:25.819Z,100.00
2023-05-07T16:24:58.375Z,100.00
2023-05-07T16:27:28.357Z,100.00
2023-05-07T16:29:58.335Z,100.00
2023-05-07T16:32:28.929Z,100.00
2023-05-07T16:34:58.855Z,100.00
2023-05-07T16:37:28.773Z,100.00
2023-05-07T16:40:01.367Z,100.00
2023-05-07T16:42:31.247Z,100.00
2023-05-07T16:45:01.142Z,100.00
2023-05-07T16:47:31.262Z,100.00
2023-05-07T16:50:01.370Z,100.00
2023-05-07T16:52:32.771Z,100.00
2023-05-07T16:55:05.209Z,100.00
2023-05-07T16:57:35.175Z,100.00
2023-05-07T17:00:07.558Z,100.00
2023-05-07T17:02:37.851Z,100.00
2023-05-07T17:05:09.189Z,100.00
2023-05-07T17:07:39.210Z,100.00
2023-05-07T17:10:13.050Z,100.00
2023-05-07T17:12:43.162Z,100.00
2023-05-07T17:15:14.512Z,100.00
2023-05-07T17:17:44.543Z,100.00
2023-05-07T17:20:15.965Z,100.00
2023-05-07T17:22:46.025Z,100.00
2023-05-07T17:25:18.514Z,100.00
2023-05-07T17:27:48.388Z,100.00
2023-05-07T17:30:18.536Z,100.00
2023-05-07T17:32:48.422Z,100.00
2023-05-07T17:35:18.496Z,100.00
2023-05-07T17:37:52.771Z,100.00
2023-05-07T17:40:26.723Z,100.00
2023-05-07T17:42:58.880Z,100.00
2023-05-07T17:45:29.606Z,100.00
2023-05-07T17:47:59.518Z,100.00
2023-05-07T17:50:29.391Z,100.00
2023-05-07T17:52:59.281Z,100.00
2023-05-07T17:55:33.743Z,100.00
2023-05-07T17:58:03.743Z,100.00
2023-05-07T18:00:33.892Z,100.00
2023-05-07T18:03:03.847Z,100.00
2023-05-07T18:05:34.174Z,100.00
2023-05-07T18:08:04.103Z,100.00
2023-05-07T18:10:36.639Z,100.00
2023-05-07T18:13:06.676Z,100.00
2023-05-07T18:15:36.569Z,100.00
2023-05-07T18:18:07.266Z,100.00
2023-05-07T18:20:37.193Z,100.00
2023-05-07T18:23:07.319Z,100.00
2023-05-07T18:25:40.515Z,100.00
2023-05-07T18:28:10.435Z,100.00
2023-05-07T18:30:40.402Z,100.00
2023-05-07T18:33:10.670Z,100.00
2023-05-07T18:35:40.764Z,100.00
2023-05-07T18:38:10.674Z,100.00
2023-05-07T18:40:44.963Z,100.00
2023-05-07T18:43:14.873Z,100.00
2023-05-07T18:45:44.818Z,100.00
2023-05-07T18:48:16.903Z,100.00
2023-05-07T18:50:48.193Z,100.00
2023-05-07T18:53:18.045Z,100.00
2023-05-07T18:55:54.916Z,100.00
2023-05-07T18:58:24.797Z,100.00
2023-05-07T19:00:55.446Z,100.00
2023-05-07T19:03:25.359Z,100.00
2023-05-07T19:05:56.451Z,100.00
2023-05-07T19:08:26.329Z,100.00
2023-05-07T19:11:00.800Z,100.00
2023-05-07T19:13:31.335Z,100.00
2023-05-07T19:16:01.915Z,100.00
2023-05-07T19:18:32.998Z,100.00
2023-05-07T19:21:03.017Z,100.00
2023-05-07T19:23:33.038Z,100.00
2023-05-07T19:26:05.552Z,100.00
2023-05-07T19:28:36.657Z,100.00
2023-05-07T19:31:08.139Z,100.00
2023-05-07T19:33:38.016Z,100.00
2023-05-07T19:36:08.356Z,100.00
2023-05-07T19:38:38.218Z,100.00
2023-05-07T19:41:12.551Z,100.00
2023-05-07T19:43:42.706Z,100.00
2023-05-07T19:46:13.184Z,100.00
2023-05-07T19:48:43.105Z,100.00
2023-05-07T19:51:13.193Z,100.00
2023-05-07T19:53:45.059Z,100.00
2023-05-07T19:56:17.718Z,100.00
2023-05-07T19:58:47.591Z,100.00
2023-05-07T20:01:17.532Z,100.00
2023-05-07T20:03:47.848Z,100.00
2023-05-07T20:06:17.903Z,100.00
2023-05-07T20:08:48.139Z,100.00
2023-05-07T20:11:20.596Z,100.00
2023-05-07T20:13:50.638Z,100.00
2023-05-07T20:16:20.819Z,100.00
2023-05-07T20:18:50.789Z,100.00
2023-05-07T20:21:20.653Z,100.00
2023-05-07T20:23:51.261Z,100.00
2023-05-07T20:26:23.949Z,100.00
2023-05-07T20:28:53.911Z,100.00
2023-05-07T20:31:23.847Z,100.00
2023-05-07T20:33:53.838Z,100.00
2023-05-07T20:36:26.091Z,100.00
2023-05-07T20:38:56.272Z,100.00
2023-05-07T20:41:28.987Z,100.00
2023-05-07T20:43:58.927Z,100.00
2023-05-07T20:46:29.814Z,100.00
2023-05-07T20:48:59.753Z,100.00
2023-05-07T20:51:30.553Z,100.00
2023-05-07T20:54:00.443Z,100.00
2023-05-07T20:56:32.900Z,100.00
2023-05-07T20:59:02.928Z,100.00
2023-05-07T21:01:32.948Z,100.00
2023-05-07T21:04:02.995Z,100.00
2023-05-07T21:06:32.925Z,100.00
2023-05-07T21:09:03.138Z,100.00
2023-05-07T21:11:35.710Z,100.00
2023-05-07T21:14:05.628Z,100.00
2023-05-07T21:16:35.553Z,100.00
2023-05-07T21:19:05.566Z,100.00
2023-05-07T21:21:35.446Z,100.00
2023-05-07T21:24:05.557Z,100.00
2023-05-07T21:26:38.056Z,100.00
2023-05-07T21:29:08.990Z,100.00
2023-05-07T21:31:38.926Z,100.00
2023-05-07T21:34:09.437Z,100.00
2023-05-07T21:36:39.429Z,100.00
2023-05-07T21:39:09.990Z,100.00
2023-05-07T21:41:42.820Z,100.00
2023-05-07T21:44:12.762Z,100.00
2023-05-07T21:46:42.720Z,100.00
2023-05-07T21:49:12.995Z,100.00
2023-05-07T21:51:43.017Z,100.00
2023-05-07T21:54:12.917Z,100.00
2023-05-07T21:56:46.561Z,100.00
2023-05-07T21:59:17.067Z,100.00
2023-05-07T22:01:46.986Z,100.00
2023-05-07T22:04:16.911Z,100.00
2023-05-07T22:06:46.878Z,100.00
2023-05-07T22:09:17.186Z,100.00
2023-05-07T22:11:49.707Z,100.00
2023-05-07T22:14:21.293Z,100.00
2023-05-07T22:16:51.431Z,100.00
2023-05-07T22:19:21.455Z,100.00
2023-05-07T22:21:51.356Z,100.00
2023-05-07T22:24:21.372Z,100.00
2023-05-07T22:26:53.847Z,100.00
2023-05-07T22:29:23.833Z,100.00
2023-05-07T22:31:53.926Z,100.00
2023-05-07T22:34:23.841Z,100.00
2023-05-07T22:36:53.810Z,100.00
2023-05-07T22:39:23.692Z,100.00
2023-05-07T22:41:56.263Z,100.00
2023-05-07T22:44:26.428Z,100.00
2023-05-07T22:46:56.281Z,100.00
2023-05-07T22:49:26.444Z,100.00
2023-05-07T22:51:56.316Z,100.00
2023-05-07T22:54:26.490Z,100.00
2023-05-07T22:57:00.145Z,100.00
2023-05-07T22:59:30.309Z,100.00
2023-05-07T23:02:00.634Z,100.00
2023-05-07T23:04:30.547Z,100.00
2023-05-07T23:07:00.687Z,100.00
2023-05-07T23:09:30.925Z,100.00
2023-05-07T23:12:03.451Z,100.00
2023-05-07T23:14:33.353Z,100.00
2023-05-07T23:17:03.409Z,100.00
2023-05-07T23:19:33.406Z,100.00
2023-05-07T23:22:03.542Z,100.00
2023-05-07T23:24:34.748Z,100.00
2023-05-07T23:27:09.575Z,100.00
2023-05-07T23:29:39.536Z,100.00
2023-05-07T23:32:09.394Z,100.00
2023-05-07T23:34:39.255Z,100.00
2023-05-07T23:37:11.484Z,100.00
2023-05-07T23:39:41.479Z,100.00
2023-05-07T23:42:14.071Z,100.00
2023-05-07T23:44:43.890Z,100.00
2023-05-07T23:47:13.891Z,100.00
2023-05-07T23:49:43.799Z,100.00
2023-05-07T23:52:13.729Z,100.00
2023-05-07T23:54:43.783Z,100.00
2023-05-07T23:57:16.483Z,100.00
2023-05-07T23:59:46.372Z,100.00
